VLG4LT LEBB-LEBL
Flight info
| Callsign | VLG4LT |
|---|---|
| Flight time | 0h 53m |
| Altitude | 30000 |
| Route | PPN M601 GRAUS |
| Aircraft | A320/M-SDE3FGHIRWY/LB1 |
Departure
| Time | 2026-05-04 15:41 |
|---|---|
| Airport | Bilbao Airport (LEBB) |
Arrival
| Time | 2026-05-04 16:35 |
|---|---|
| Airport | Josep Tarradellas Barcelona-El Prat Airport (LEBL) |
| Time | Latitude | Longitude | Altitude | Speed | Heading |
|---|---|---|---|---|---|
| 2026-05-04 15:16 | 43.30406 | -2.90579 | 133 ft | 0 kts | 27° |
| 2026-05-04 15:33 | 43.30379 | -2.90601 | 132 ft | 4 kts | 39° |
| 2026-05-04 15:34 | 43.30361 | -2.90662 | 132 ft | 0 kts | 116° |
| 2026-05-04 15:37 | 43.30355 | -2.90647 | 132 ft | 5 kts | 116° |
| 2026-05-04 15:37 | 43.30322 | -2.90590 | 132 ft | 11 kts | 149° |
| 2026-05-04 15:37 | 43.30241 | -2.90524 | 132 ft | 15 kts | 169° |
| 2026-05-04 15:38 | 43.30140 | -2.90581 | 132 ft | 13 kts | 188° |
| 2026-05-04 15:38 | 43.30083 | -2.90479 | 132 ft | 17 kts | 116° |
| 2026-05-04 15:38 | 43.30022 | -2.90310 | 132 ft | 23 kts | 117° |
| 2026-05-04 15:38 | 43.29948 | -2.90105 | 132 ft | 24 kts | 115° |
| 2026-05-04 15:39 | 43.29872 | -2.89899 | 132 ft | 26 kts | 116° |
| 2026-05-04 15:39 | 43.29807 | -2.89724 | 132 ft | 11 kts | 116° |
| 2026-05-04 15:39 | 43.29731 | -2.89581 | 132 ft | 8 kts | 175° |
| 2026-05-04 15:40 | 43.29674 | -2.89644 | 132 ft | 14 kts | 230° |
| 2026-05-04 15:40 | 43.29645 | -2.89793 | 127 ft | 20 kts | 294° |
| 2026-05-04 15:40 | 43.29758 | -2.90100 | 126 ft | 71 kts | 296° |
| 2026-05-04 15:40 | 43.30092 | -2.91011 | 127 ft | 136 kts | 297° |
| 2026-05-04 15:41 | 43.30576 | -2.92272 | 583 ft | 156 kts | 298° |
| 2026-05-04 15:41 | 43.31099 | -2.93641 | 1299 ft | 167 kts | 299° |
| 2026-05-04 15:41 | 43.31661 | -2.95092 | 2018 ft | 180 kts | 300° |
| 2026-05-04 15:41 | 43.32303 | -2.96682 | 2660 ft | 200 kts | 304° |
| 2026-05-04 15:42 | 43.33226 | -2.98207 | 3415 ft | 214 kts | 316° |
| 2026-05-04 15:42 | 43.34309 | -2.99680 | 4408 ft | 217 kts | 316° |
| 2026-05-04 15:42 | 43.35377 | -3.01078 | 5597 ft | 215 kts | 317° |
| 2026-05-04 15:42 | 43.36478 | -3.02495 | 6604 ft | 218 kts | 317° |
| 2026-05-04 15:43 | 43.37602 | -3.03935 | 7536 ft | 224 kts | 316° |
| 2026-05-04 15:43 | 43.38753 | -3.05405 | 8499 ft | 227 kts | 316° |
| 2026-05-04 15:43 | 43.40012 | -3.06791 | 9268 ft | 244 kts | 334° |
| 2026-05-04 15:43 | 43.41746 | -3.07113 | 9927 ft | 265 kts | 9° |
| 2026-05-04 15:44 | 43.43399 | -3.05914 | 10683 ft | 278 kts | 46° |
| 2026-05-04 15:44 | 43.44362 | -3.03602 | 11553 ft | 283 kts | 73° |
| 2026-05-04 15:44 | 43.44859 | -3.00961 | 12446 ft | 288 kts | 71° |
| 2026-05-04 15:44 | 43.45857 | -2.98556 | 13287 ft | 294 kts | 50° |
| 2026-05-04 15:45 | 43.47334 | -2.96573 | 14136 ft | 298 kts | 40° |
| 2026-05-04 15:45 | 43.48871 | -2.94625 | 14944 ft | 304 kts | 48° |
| 2026-05-04 15:45 | 43.50009 | -2.92163 | 15785 ft | 308 kts | 69° |
| 2026-05-04 15:45 | 43.50517 | -2.89285 | 16478 ft | 317 kts | 88° |
| 2026-05-04 15:46 | 43.50275 | -2.86228 | 16899 ft | 327 kts | 111° |
| 2026-05-04 15:46 | 43.49377 | -2.83342 | 17606 ft | 331 kts | 118° |
| 2026-05-04 15:46 | 43.48410 | -2.80444 | 18370 ft | 337 kts | 119° |
| 2026-05-04 15:46 | 43.47110 | -2.77683 | 18539 ft | 353 kts | 135° |
| 2026-05-04 15:47 | 43.45413 | -2.75132 | 18831 ft | 368 kts | 136° |
| 2026-05-04 15:47 | 43.43655 | -2.72535 | 19401 ft | 374 kts | 136° |
| 2026-05-04 15:47 | 43.41871 | -2.69912 | 20055 ft | 378 kts | 136° |
| 2026-05-04 15:47 | 43.40194 | -2.67083 | 20683 ft | 384 kts | 131° |
| 2026-05-04 15:48 | 43.38573 | -2.64147 | 21349 ft | 387 kts | 130° |
| 2026-05-04 15:48 | 43.36988 | -2.61196 | 21976 ft | 391 kts | 130° |
| 2026-05-04 15:48 | 43.33756 | -2.55109 | 23245 ft | 398 kts | 129° |
| 2026-05-04 15:49 | 43.32116 | -2.52029 | 23832 ft | 401 kts | 130° |
| 2026-05-04 15:49 | 43.30456 | -2.48934 | 24344 ft | 404 kts | 130° |
| 2026-05-04 15:49 | 43.28777 | -2.45820 | 24868 ft | 407 kts | 130° |
| 2026-05-04 15:49 | 43.27082 | -2.42690 | 25397 ft | 410 kts | 130° |
| 2026-05-04 15:50 | 43.25371 | -2.39539 | 25914 ft | 413 kts | 130° |
| 2026-05-04 15:50 | 43.23646 | -2.36371 | 26403 ft | 416 kts | 130° |
| 2026-05-04 15:50 | 43.21906 | -2.33175 | 26908 ft | 419 kts | 130° |
| 2026-05-04 15:50 | 43.20155 | -2.29959 | 27363 ft | 423 kts | 130° |
| 2026-05-04 15:51 | 43.18389 | -2.26716 | 27860 ft | 425 kts | 130° |
| 2026-05-04 15:51 | 43.16618 | -2.23465 | 28407 ft | 427 kts | 130° |
| 2026-05-04 15:51 | 43.14835 | -2.20197 | 28907 ft | 430 kts | 130° |
| 2026-05-04 15:51 | 43.13039 | -2.16910 | 29373 ft | 433 kts | 130° |
| 2026-05-04 15:52 | 43.11225 | -2.13596 | 29832 ft | 437 kts | 130° |
| 2026-05-04 15:52 | 43.09400 | -2.10262 | 30008 ft | 436 kts | 130° |
| 2026-05-04 15:52 | 43.07621 | -2.07005 | 30024 ft | 421 kts | 130° |
| 2026-05-04 15:52 | 43.05882 | -2.03827 | 30023 ft | 415 kts | 130° |
| 2026-05-04 15:53 | 43.02448 | -1.97575 | 30029 ft | 413 kts | 130° |
| 2026-05-04 15:53 | 42.98927 | -1.91187 | 30025 ft | 431 kts | 131° |
| 2026-05-04 15:54 | 42.97088 | -1.87875 | 30016 ft | 444 kts | 131° |
| 2026-05-04 15:54 | 42.95220 | -1.84519 | 30017 ft | 454 kts | 131° |
| 2026-05-04 15:54 | 42.91384 | -1.77585 | 30015 ft | 459 kts | 131° |
| 2026-05-04 15:55 | 42.87542 | -1.70625 | 29976 ft | 460 kts | 131° |
| 2026-05-04 15:55 | 42.83688 | -1.63672 | 29978 ft | 460 kts | 131° |
| 2026-05-04 15:56 | 42.79793 | -1.56689 | 29976 ft | 460 kts | 131° |
| 2026-05-04 15:56 | 42.75928 | -1.49776 | 29973 ft | 452 kts | 131° |
| 2026-05-04 15:57 | 42.72196 | -1.43098 | 29982 ft | 443 kts | 132° |
| 2026-05-04 15:57 | 42.68461 | -1.36438 | 29983 ft | 443 kts | 132° |
| 2026-05-04 15:58 | 42.64714 | -1.29794 | 29988 ft | 443 kts | 132° |
| 2026-05-04 15:58 | 42.60972 | -1.23156 | 29992 ft | 443 kts | 132° |
| 2026-05-04 15:59 | 42.57215 | -1.16514 | 29958 ft | 445 kts | 132° |
| 2026-05-04 15:59 | 42.53446 | -1.09858 | 29966 ft | 444 kts | 132° |
| 2026-05-04 16:00 | 42.49757 | -1.03150 | 29971 ft | 447 kts | 127° |
| 2026-05-04 16:00 | 42.46921 | -0.95596 | 29974 ft | 451 kts | 121° |
| 2026-05-04 16:01 | 42.44184 | -0.87967 | 29970 ft | 450 kts | 121° |
| 2026-05-04 16:01 | 42.41432 | -0.80362 | 29966 ft | 450 kts | 121° |
| 2026-05-04 16:02 | 42.38671 | -0.72742 | 29949 ft | 455 kts | 122° |
| 2026-05-04 16:03 | 42.34477 | -0.61190 | 29946 ft | 456 kts | 122° |
| 2026-05-04 16:03 | 42.31673 | -0.53485 | 29946 ft | 457 kts | 122° |
| 2026-05-04 16:04 | 42.28885 | -0.45840 | 29941 ft | 457 kts | 122° |
| 2026-05-04 16:04 | 42.24655 | -0.34306 | 29930 ft | 457 kts | 122° |
| 2026-05-04 16:05 | 42.21836 | -0.26626 | 29927 ft | 457 kts | 122° |
| 2026-05-04 16:06 | 42.17593 | -0.15115 | 29934 ft | 457 kts | 121° |
| 2026-05-04 16:07 | 42.11902 | 0.00246 | 29854 ft | 459 kts | 122° |
| 2026-05-04 16:08 | 42.06085 | 0.15842 | 29415 ft | 468 kts | 122° |
| 2026-05-04 16:08 | 42.01700 | 0.27596 | 28336 ft | 469 kts | 122° |
| 2026-05-04 16:09 | 41.98813 | 0.35261 | 27299 ft | 450 kts | 122° |
| 2026-05-04 16:09 | 41.96537 | 0.42999 | 26376 ft | 438 kts | 114° |
| 2026-05-04 16:10 | 41.94607 | 0.50577 | 25675 ft | 422 kts | 114° |
| 2026-05-04 16:11 | 41.91768 | 0.61610 | 24656 ft | 413 kts | 114° |
| 2026-05-04 16:11 | 41.90830 | 0.65239 | 24326 ft | 410 kts | 114° |
| 2026-05-04 16:12 | 41.88053 | 0.75912 | 23337 ft | 403 kts | 113° |
| 2026-05-04 16:12 | 41.85563 | 0.85444 | 22277 ft | 401 kts | 114° |
| 2026-05-04 16:13 | 41.83740 | 0.92454 | 21536 ft | 395 kts | 114° |
| 2026-05-04 16:13 | 41.81937 | 0.99359 | 20845 ft | 390 kts | 114° |
| 2026-05-04 16:14 | 41.80155 | 1.06162 | 20154 ft | 384 kts | 114° |
| 2026-05-04 16:14 | 41.78391 | 1.12860 | 19472 ft | 378 kts | 114° |
| 2026-05-04 16:15 | 41.75756 | 1.22810 | 18437 ft | 378 kts | 114° |
| 2026-05-04 16:16 | 41.74005 | 1.29418 | 17712 ft | 374 kts | 114° |
| 2026-05-04 16:16 | 41.71414 | 1.39182 | 16541 ft | 367 kts | 114° |
| 2026-05-04 16:17 | 41.69709 | 1.45579 | 15774 ft | 363 kts | 114° |
| 2026-05-04 16:18 | 41.67177 | 1.55031 | 14647 ft | 358 kts | 114° |
| 2026-05-04 16:18 | 41.66336 | 1.58154 | 14287 ft | 357 kts | 114° |
| 2026-05-04 16:19 | 41.63849 | 1.67392 | 13168 ft | 350 kts | 114° |
| 2026-05-04 16:19 | 41.62207 | 1.73482 | 12393 ft | 346 kts | 114° |
| 2026-05-04 16:20 | 41.59780 | 1.82463 | 11255 ft | 338 kts | 114° |
| 2026-05-04 16:20 | 41.58200 | 1.88286 | 10543 ft | 330 kts | 114° |
| 2026-05-04 16:21 | 41.55886 | 1.96776 | 9424 ft | 320 kts | 114° |
| 2026-05-04 16:22 | 41.54367 | 2.02292 | 8646 ft | 313 kts | 115° |
| 2026-05-04 16:22 | 41.52078 | 2.10314 | 7508 ft | 304 kts | 113° |
| 2026-05-04 16:23 | 41.49656 | 2.17993 | 6419 ft | 296 kts | 120° |
| 2026-05-04 16:24 | 41.46006 | 2.27702 | 5015 ft | 291 kts | 109° |
| 2026-05-04 16:25 | 41.45841 | 2.32899 | 4994 ft | 278 kts | 79° |
| 2026-05-04 16:26 | 41.48909 | 2.42436 | 4999 ft | 280 kts | 67° |
| 2026-05-04 16:26 | 41.48930 | 2.49674 | 4993 ft | 269 kts | 127° |
| 2026-05-04 16:27 | 41.46002 | 2.51564 | 4990 ft | 229 kts | 196° |
| 2026-05-04 16:28 | 41.42989 | 2.46971 | 4994 ft | 228 kts | 244° |
| 2026-05-04 16:28 | 41.41039 | 2.41169 | 4904 ft | 233 kts | 243° |
| 2026-05-04 16:29 | 41.38435 | 2.33475 | 3749 ft | 222 kts | 244° |
| 2026-05-04 16:30 | 41.36586 | 2.28025 | 2899 ft | 207 kts | 244° |
| 2026-05-04 16:31 | 41.35404 | 2.24548 | 2360 ft | 205 kts | 244° |
| 2026-05-04 16:31 | 41.33729 | 2.19625 | 1587 ft | 176 kts | 244° |
| 2026-05-04 16:32 | 41.32422 | 2.15819 | 974 ft | 134 kts | 243° |
| 2026-05-04 16:33 | 41.31658 | 2.13593 | 599 ft | 131 kts | 243° |
| 2026-05-04 16:33 | 41.30938 | 2.11378 | 255 ft | 131 kts | 244° |
| 2026-05-04 16:34 | 41.30196 | 2.09268 | 17 ft | 103 kts | 245° |
| 2026-05-04 16:34 | 41.29971 | 2.08612 | 22 ft | 53 kts | 245° |
| 2026-05-04 16:35 | 41.29723 | 2.08210 | 17 ft | 0 kts | 212° |
| 2026-05-04 16:35 | 41.29718 | 2.08206 | 17 ft | 3 kts | 212° |
| 2026-05-04 16:36 | 41.29679 | 2.08192 | 17 ft | 9 kts | 174° |
| 2026-05-04 16:36 | 41.29489 | 2.08305 | 19 ft | 20 kts | 155° |
| 2026-05-04 16:37 | 41.29227 | 2.08454 | 21 ft | 20 kts | 178° |
| 2026-05-04 16:37 | 41.29092 | 2.08396 | 19 ft | 22 kts | 198° |
| 2026-05-04 16:37 | 41.28979 | 2.08162 | 19 ft | 7 kts | 253° |
| 2026-05-04 16:38 | 41.29034 | 2.08123 | 21 ft | 5 kts | 335° |
| 2026-05-04 16:39 | 41.29056 | 2.08110 | 19 ft | 0 kts | 335° |